Terminal Aerodrome Forecast
Issued by NWS Sterling, VA

Current Version | Previous Version | Graphics & Text | Print | Product List | Glossary Off
Versions: 1 2 3 4 5 6 7 8 9 10 11 12 13 14 15 16 17 18 19 20 21 22 23

000
FTUS41 KLWX 012000 AAA
TAFDCA
TAF AMD
KDCA 012046Z 0121/0218 06004KT P6SM BKN050
     FM020000 VRB03KT P6SM SCT060
     FM020900 00000KT P6SM SCT010 BKN050=

USA.gov is the U.S. government's official web portal to all federal, state and local government web resources and services.